createdAt,value
2022-11-10T00:04:18.031Z,9.80
2022-11-10T00:09:22.766Z,9.70
2022-11-10T00:14:43.160Z,9.70
2022-11-10T00:19:46.450Z,9.70
2022-11-10T00:24:51.116Z,9.60
2022-11-10T00:29:54.539Z,9.60
2022-11-10T00:34:57.765Z,9.60
2022-11-10T00:40:02.427Z,9.50
2022-11-10T00:45:06.806Z,9.40
2022-11-10T00:50:10.690Z,9.40
2022-11-10T00:55:15.501Z,9.20
2022-11-10T01:00:19.378Z,9.10
2022-11-10T01:05:23.381Z,9.10
2022-11-10T01:10:28.489Z,9.10
2022-11-10T01:15:31.929Z,9.10
2022-11-10T01:20:36.025Z,9.10
2022-11-10T01:25:40.704Z,9.00
2022-11-10T01:30:43.974Z,9.00
2022-11-10T01:35:47.522Z,8.90
2022-11-10T01:40:52.118Z,8.80
2022-11-10T01:45:56.739Z,8.70
2022-11-10T01:51:03.400Z,8.60
2022-11-10T01:56:11.911Z,8.40
2022-11-10T02:01:16.976Z,8.20
2022-11-10T02:06:24.021Z,8.00
2022-11-10T02:11:29.859Z,8.00
2022-11-10T02:16:33.315Z,8.10
2022-11-10T02:21:38.063Z,8.10
2022-11-10T02:26:46.540Z,8.10
2022-11-10T02:31:49.824Z,8.10
2022-11-10T02:36:54.492Z,8.00
2022-11-10T02:41:57.797Z,8.10
2022-11-10T02:47:01.122Z,8.10
2022-11-10T02:52:06.019Z,7.90
2022-11-10T02:57:09.242Z,7.70
2022-11-10T03:02:12.542Z,7.40
2022-11-10T03:07:17.303Z,7.40
2022-11-10T03:12:20.605Z,7.40
2022-11-10T03:17:23.895Z,7.60
2022-11-10T03:22:28.690Z,7.70
2022-11-10T03:27:32.001Z,7.60
2022-11-10T03:32:35.482Z,7.40
2022-11-10T03:37:42.319Z,7.30
2022-11-10T03:42:46.452Z,7.40
2022-11-10T03:47:51.028Z,7.40
2022-11-10T03:52:55.659Z,7.40
2022-11-10T03:58:03.510Z,7.20
2022-11-10T04:03:06.945Z,7.10
2022-11-10T04:08:32.696Z,7.00
2022-11-10T04:13:53.377Z,7.00
2022-11-10T04:18:56.692Z,7.10
2022-11-10T04:24:01.539Z,7.10
2022-11-10T04:29:08.869Z,7.00
2022-11-10T04:34:14.269Z,7.10
2022-11-10T04:39:18.921Z,7.00
2022-11-10T04:44:22.154Z,7.00
2022-11-10T04:49:25.501Z,7.00
2022-11-10T04:54:30.367Z,6.90
2022-11-10T04:59:33.636Z,6.70
2022-11-10T05:04:36.884Z,6.70
2022-11-10T05:09:41.705Z,6.60
2022-11-10T05:14:44.873Z,6.50
2022-11-10T05:19:48.297Z,6.30
2022-11-10T05:24:53.012Z,6.20
2022-11-10T05:29:57.212Z,6.10
2022-11-10T05:35:00.573Z,5.90
2022-11-10T05:40:05.628Z,5.70
2022-11-10T05:45:09.894Z,5.50
2022-11-10T05:50:13.177Z,5.30
2022-11-10T05:55:19.537Z,5.20
2022-11-10T06:00:25.116Z,5.10
2022-11-10T06:05:31.334Z,5.10
2022-11-10T06:10:37.469Z,5.00
2022-11-10T06:15:42.951Z,5.00
2022-11-10T06:20:48.623Z,4.90
2022-11-10T06:25:53.386Z,4.80
2022-11-10T06:30:59.106Z,4.80
2022-11-10T06:36:03.220Z,4.80
2022-11-10T06:41:07.880Z,5.00
2022-11-10T06:46:11.695Z,5.20
2022-11-10T06:51:15.116Z,5.20
2022-11-10T06:56:19.794Z,5.20
2022-11-10T07:01:26.768Z,5.30
2022-11-10T07:06:30.237Z,5.60
2022-11-10T07:11:34.921Z,5.80
2022-11-10T07:16:38.574Z,6.00
2022-11-10T07:21:42.992Z,6.40
2022-11-10T07:26:47.657Z,6.80
2022-11-10T07:31:51.012Z,7.10
2022-11-10T07:36:54.240Z,7.40
2022-11-10T07:42:00.116Z,7.50
2022-11-10T07:47:03.514Z,7.60
2022-11-10T07:52:06.812Z,7.70
2022-11-10T07:57:11.497Z,7.70
2022-11-10T08:02:14.990Z,7.60
2022-11-10T08:07:20.907Z,7.50
2022-11-10T08:12:29.833Z,7.50
2022-11-10T08:17:34.635Z,7.50
2022-11-10T08:22:37.863Z,7.60
2022-11-10T08:27:42.452Z,7.70
2022-11-10T08:32:45.790Z,7.90
2022-11-10T08:37:49.137Z,8.00
2022-11-10T08:43:01.298Z,8.00
2022-11-10T08:48:06.390Z,8.20
2022-11-10T08:53:12.426Z,8.40
2022-11-10T08:58:18.884Z,8.50
2022-11-10T09:03:23.915Z,8.60
2022-11-10T09:08:28.558Z,9.10
2022-11-10T09:13:33.961Z,11.10
2022-11-10T09:18:55.922Z,13.60
2022-11-10T09:23:59.309Z,14.90
2022-11-10T09:29:04.085Z,15.30
2022-11-10T09:34:07.453Z,14.90
2022-11-10T09:39:10.702Z,14.30
2022-11-10T09:44:23.015Z,13.40
2022-11-10T09:49:33.662Z,12.70
2022-11-10T09:54:45.655Z,11.90
2022-11-10T09:59:56.203Z,11.60
2022-11-10T10:05:18.767Z,11.60
2022-11-10T10:10:30.321Z,11.80
2022-11-10T10:15:43.257Z,11.90
2022-11-10T10:21:04.382Z,11.80
2022-11-10T10:26:14.276Z,11.70
2022-11-10T10:31:27.068Z,11.70
2022-11-10T10:36:32.448Z,11.80
2022-11-10T10:41:38.510Z,11.90
2022-11-10T10:46:49.400Z,12.10
2022-11-10T10:52:04.379Z,12.30
2022-11-10T10:57:22.671Z,12.50
2022-11-10T11:02:30.909Z,12.70
2022-11-10T11:07:34.398Z,12.80
2022-11-10T11:12:37.752Z,12.90
2022-11-10T11:17:54.609Z,12.80
2022-11-10T11:23:09.303Z,13.00
2022-11-10T11:28:23.095Z,13.00
2022-11-10T11:33:35.819Z,13.10
2022-11-10T11:38:54.373Z,13.30
2022-11-10T11:44:19.424Z,13.20
2022-11-10T11:49:48.028Z,13.20
2022-11-10T11:55:07.786Z,13.30
2022-11-10T12:00:16.887Z,13.40
2022-11-10T12:05:39.110Z,13.60
2022-11-10T12:10:57.046Z,13.50
2022-11-10T12:16:06.313Z,13.10
2022-11-10T12:21:25.719Z,13.30
2022-11-10T12:26:44.899Z,13.40
2022-11-10T12:31:50.545Z,13.20
2022-11-10T12:36:55.680Z,13.30
2022-11-10T12:42:01.536Z,13.30
2022-11-10T12:47:08.329Z,13.40
2022-11-10T12:52:17.705Z,13.40
2022-11-10T12:57:24.985Z,13.50
2022-11-10T13:02:33.096Z,13.50
2022-11-10T13:07:37.897Z,13.50
2022-11-10T13:13:00.291Z,13.30
2022-11-10T13:18:04.254Z,13.40
2022-11-10T13:29:02.604Z,13.50
2022-11-10T13:34:12.885Z,13.60
2022-11-10T13:39:26.959Z,13.40
2022-11-10T13:44:33.997Z,13.30
2022-11-10T13:49:54.054Z,13.20
2022-11-10T13:55:17.930Z,13.20
2022-11-10T14:00:28.783Z,13.10
2022-11-10T14:06:07.639Z,13.10
2022-11-10T14:11:24.790Z,13.10
2022-11-10T14:16:33.167Z,13.00
2022-11-10T14:21:45.250Z,13.00
2022-11-10T14:26:57.810Z,12.90
2022-11-10T14:32:04.888Z,12.80
2022-11-10T14:37:08.809Z,12.70
2022-11-10T14:42:16.895Z,12.70
2022-11-10T14:47:31.279Z,12.70
2022-11-10T14:52:38.737Z,12.60
2022-11-10T14:57:50.550Z,12.40
2022-11-10T15:03:01.454Z,12.30
2022-11-10T15:08:06.253Z,12.10
2022-11-10T15:13:21.799Z,11.90
2022-11-10T15:18:29.316Z,11.70
2022-11-10T15:23:36.612Z,11.40
2022-11-10T15:28:39.874Z,11.20
2022-11-10T15:33:50.750Z,10.80
2022-11-10T15:39:04.204Z,10.50
2022-11-10T15:44:22.266Z,10.20
2022-11-10T15:49:28.681Z,9.80
2022-11-10T15:54:34.728Z,9.60
2022-11-10T15:59:38.117Z,9.20
2022-11-10T16:04:42.746Z,8.80
2022-11-10T16:09:46.076Z,8.40
2022-11-10T16:14:52.436Z,8.10
2022-11-10T16:19:57.079Z,7.90
2022-11-10T16:25:00.333Z,7.70
2022-11-10T16:30:03.810Z,7.50
2022-11-10T16:35:14.023Z,7.20
2022-11-10T16:40:19.738Z,7.00
2022-11-10T16:45:30.216Z,6.90
2022-11-10T16:50:37.867Z,6.70
2022-11-10T16:55:46.193Z,6.60
2022-11-10T17:00:51.087Z,6.50
2022-11-10T17:05:56.045Z,6.40
2022-11-10T17:10:59.411Z,6.30
2022-11-10T17:16:06.639Z,6.20
2022-11-10T17:21:14.325Z,6.10
2022-11-10T17:26:20.575Z,6.00
2022-11-10T17:31:24.013Z,5.90
2022-11-10T17:36:28.745Z,6.00
2022-11-10T17:41:32.120Z,5.90
2022-11-10T17:46:35.317Z,5.80
2022-11-10T17:51:40.990Z,5.70
2022-11-10T17:56:44.243Z,5.60
2022-11-10T18:01:47.597Z,5.60
2022-11-10T18:06:52.431Z,5.50
2022-11-10T18:11:55.690Z,5.40
2022-11-10T18:16:59.107Z,5.40
2022-11-10T18:22:03.945Z,5.30
2022-11-10T18:27:07.133Z,5.30
2022-11-10T18:32:10.387Z,5.20
2022-11-10T18:37:16.200Z,5.10
2022-11-10T18:42:19.488Z,5.20
2022-11-10T18:47:22.780Z,5.30
2022-11-10T18:52:27.473Z,5.20
2022-11-10T18:57:30.688Z,5.20
2022-11-10T19:02:34.464Z,5.10
2022-11-10T19:07:39.143Z,5.00
2022-11-10T19:12:42.428Z,5.00
2022-11-10T19:17:45.711Z,5.00
2022-11-10T19:22:50.366Z,4.90
2022-11-10T19:27:53.603Z,4.80
2022-11-10T19:32:56.876Z,4.70
2022-11-10T19:38:01.580Z,4.80
2022-11-10T19:43:05.756Z,4.80
2022-11-10T19:48:09.046Z,4.80
2022-11-10T19:53:13.786Z,4.70
2022-11-10T19:58:16.973Z,4.70
2022-11-10T20:03:20.476Z,4.70
2022-11-10T20:08:25.237Z,4.50
2022-11-10T20:13:28.672Z,4.40
2022-11-10T20:18:34.651Z,4.30
2022-11-10T20:23:39.761Z,4.30
2022-11-10T20:28:44.584Z,4.30
2022-11-10T20:33:48.910Z,4.30
2022-11-10T20:38:54.876Z,4.30
2022-11-10T20:43:58.445Z,4.30
2022-11-10T20:49:01.783Z,4.20
2022-11-10T20:54:06.457Z,4.00
2022-11-10T20:59:09.958Z,3.90
2022-11-10T21:04:13.525Z,3.70
2022-11-10T21:09:18.172Z,3.60
2022-11-10T21:14:21.482Z,3.50
2022-11-10T21:19:24.757Z,3.60
2022-11-10T21:24:30.106Z,3.70
2022-11-10T21:29:34.390Z,3.70
2022-11-10T21:34:37.732Z,3.80
2022-11-10T21:39:44.090Z,3.80
2022-11-10T21:44:47.358Z,3.60
2022-11-10T21:49:50.736Z,3.60
2022-11-10T21:54:55.600Z,3.50
2022-11-10T22:00:00.170Z,3.50
2022-11-10T22:05:14.036Z,3.60
2022-11-10T22:10:36.411Z,3.70
2022-11-10T22:15:59.238Z,3.80
2022-11-10T22:21:03.071Z,3.80
2022-11-10T22:26:07.761Z,3.80
2022-11-10T22:31:12.315Z,3.80
2022-11-10T22:36:17.700Z,3.70
2022-11-10T22:41:36.471Z,3.50
2022-11-10T22:46:41.504Z,3.30
2022-11-10T22:51:46.762Z,3.20
2022-11-10T22:56:52.289Z,3.20
2022-11-10T23:01:56.190Z,3.10
2022-11-10T23:06:59.685Z,3.00
2022-11-10T23:12:04.521Z,2.90
2022-11-10T23:17:13.910Z,2.70
2022-11-10T23:22:17.282Z,2.60
2022-11-10T23:27:21.873Z,2.70
2022-11-10T23:32:25.226Z,2.60
2022-11-10T23:37:33.325Z,2.60
2022-11-10T23:42:40.793Z,2.60
2022-11-10T23:47:45.511Z,2.70
2022-11-10T23:52:48.804Z,2.70
2022-11-10T23:57:53.503Z,2.70
